Alda, Nebraska
Current Conditions -  °F | °C
As of 3:53 PM on Sunday 25 Jan 2015 (Local Time) from KGRI Reporting Station
Overcast Overcast  
Wind Chill: 33°   Ceiling: 3400
Heat Index: 41°   Visibility: 10mi
Dew Point: 29°   Wind: 15mph
Humidity: 62%   Direction: 330°NNW
Pressure: 30.09"   Gusts: NA
Location:  40.87°N, 98.47°W
Report Text: KGRI 252153Z 33013KT 10SM OVC034 05/M02 A3009 RMK AO2 SLP205 T00501017 $
Loading
Personal Weather Stations






























Interactive Weather Map New forecast layout! Learn more

10-Day Weather Forecast

Advertisements
Track Severe Weather on mobile